EGVO

RAF Odiham Airport

Odiham, United Kingdom
METAR EGVO 242350Z 26013KT 9999 BKN012 BKN024 09/07 Q1009 GRN
Observed Flight Rules
Apr-24 @ 23:50 UTC (38 minutes ago) Marginal Visual Flight Rules
Wind Visibility Clouds
260° at 13 knots 10,000+ meters
  • Broken at 1,200' AGL
  • Broken at 2,400' AGL
Temperatures Readings
Current 9°C / 48°F
Dewpoint 7°C / 45°F
Humidity 87%
Altimeter 29.79" Hg
Pressure 1009 hPa
Elevation 123
METAR EGVO 242350Z 26013KT 9999 BKN012 BKN024 09/07 Q1009 GRN
Observed Flight Rules
Apr-24 @ 23:50 UTC
(38 minutes ago)
MVFR
Wind Visibility
260° at 13 knots 10,000+ meters
Clouds
  • Broken at 1,200' AGL
  • Broken at 2,400' AGL
Temperature Dewpoint
9°C / 48°F 7°C / 45°F
Humidity Altimeter Pressure
87% 29.79" Hg 1009 hPa